createdAt,value
2022-08-28T00:00:19.962Z,5.37
2022-08-28T00:00:52.251Z,5.87
2022-08-28T00:01:24.170Z,5.80
2022-08-28T00:01:56.052Z,5.85
2022-08-28T00:02:28.329Z,6.05
2022-08-28T00:03:00.914Z,5.95
2022-08-28T00:03:32.848Z,5.50
2022-08-28T00:04:05.127Z,6.20
2022-08-28T00:04:37.763Z,6.50
2022-08-28T00:05:11.596Z,6.45
2022-08-28T00:05:43.896Z,5.20
2022-08-28T00:06:16.110Z,6.03
2022-08-28T00:06:48.035Z,5.97
2022-08-28T00:07:19.967Z,5.87
2022-08-28T00:07:52.038Z,5.95
2022-08-28T00:08:24.462Z,5.68
2022-08-28T00:08:56.607Z,5.90
2022-08-28T00:09:28.735Z,6.60
2022-08-28T00:10:00.662Z,5.45
2022-08-28T00:10:33.224Z,6.45
2022-08-28T00:11:05.361Z,5.75
2022-08-28T00:11:37.695Z,5.95
2022-08-28T00:12:09.728Z,6.80
2022-08-28T00:12:41.723Z,5.80
2022-08-28T00:13:19.840Z,5.72
2022-08-28T00:13:51.886Z,5.95
2022-08-28T00:14:25.659Z,5.55
2022-08-28T00:14:57.741Z,5.85
2022-08-28T00:15:32.841Z,5.93
2022-08-28T00:16:05.413Z,5.80
2022-08-28T00:16:38.037Z,5.32
2022-08-28T00:17:10.061Z,5.50
2022-08-28T00:17:42.335Z,5.25
2022-08-28T00:18:14.449Z,5.30
2022-08-28T00:18:47.098Z,5.78
2022-08-28T00:19:20.722Z,5.82
2022-08-28T00:19:52.656Z,6.25
2022-08-28T00:20:26.024Z,4.82
2022-08-28T00:20:59.366Z,5.22
2022-08-28T00:21:33.228Z,6.20
2022-08-28T00:22:06.066Z,6.03
2022-08-28T00:22:38.922Z,5.72
2022-08-28T00:23:11.004Z,5.30
2022-08-28T00:23:43.640Z,4.87
2022-08-28T00:24:15.798Z,5.28
2022-08-28T00:24:48.198Z,5.43
2022-08-28T00:25:24.236Z,5.35
2022-08-28T00:25:56.143Z,4.93
2022-08-28T00:26:46.782Z,5.07
2022-08-28T00:27:37.753Z,4.93
2022-08-28T00:28:13.459Z,5.00
2022-08-28T00:28:55.936Z,5.50
2022-08-28T00:29:29.331Z,4.70
2022-08-28T00:30:01.327Z,5.22
2022-08-28T00:30:37.057Z,5.55
2022-08-28T00:31:09.106Z,5.22
2022-08-28T00:31:41.160Z,4.50
2022-08-28T00:32:13.834Z,5.40
2022-08-28T00:32:46.324Z,5.30
2022-08-28T00:33:27.400Z,6.53
2022-08-28T00:33:59.439Z,5.37
2022-08-28T00:34:33.457Z,5.20
2022-08-28T00:35:06.735Z,5.22
2022-08-28T00:35:41.104Z,5.72
2022-08-28T00:36:13.090Z,5.50
2022-08-28T00:36:45.370Z,5.62
2022-08-28T00:37:17.717Z,5.53
2022-08-28T00:37:50.685Z,6.05
2022-08-28T00:38:25.675Z,5.37
2022-08-28T00:39:00.118Z,5.15
2022-08-28T00:39:32.665Z,5.50
2022-08-28T00:40:05.061Z,5.22
2022-08-28T00:40:40.213Z,5.50
2022-08-28T00:41:12.260Z,6.03
2022-08-28T00:41:47.523Z,5.43
2022-08-28T00:42:20.576Z,5.68
2022-08-28T00:42:53.890Z,5.82
2022-08-28T00:43:41.263Z,5.25
2022-08-28T00:44:21.773Z,5.57
2022-08-28T00:44:53.683Z,5.50
2022-08-28T00:45:26.730Z,5.95
2022-08-28T00:45:58.645Z,4.97
2022-08-28T00:46:30.630Z,6.22
2022-08-28T00:47:03.180Z,5.60
2022-08-28T00:47:35.520Z,5.28
2022-08-28T00:48:08.223Z,5.85
2022-08-28T00:48:40.671Z,5.37
2022-08-28T00:49:14.717Z,5.18
2022-08-28T00:49:51.182Z,5.55
2022-08-28T00:50:26.568Z,5.20
2022-08-28T00:51:21.405Z,5.62
2022-08-28T00:52:12.981Z,5.43
2022-08-28T00:52:47.833Z,5.82
2022-08-28T00:53:21.150Z,5.85
2022-08-28T00:53:59.006Z,5.55
2022-08-28T00:54:34.557Z,5.35
2022-08-28T00:55:11.423Z,5.30
2022-08-28T00:55:44.078Z,5.60
2022-08-28T00:56:18.504Z,5.43
2022-08-28T00:56:52.045Z,5.30
2022-08-28T00:57:32.557Z,5.53
2022-08-28T00:58:07.068Z,5.78
2022-08-28T00:58:42.115Z,5.70
2022-08-28T00:59:17.577Z,6.18
2022-08-28T00:59:49.550Z,6.03
2022-08-28T01:00:33.956Z,5.43
2022-08-28T01:01:05.980Z,5.40
2022-08-28T01:01:39.303Z,5.37
2022-08-28T01:02:11.537Z,6.25
2022-08-28T01:02:44.135Z,5.43
2022-08-28T01:03:16.136Z,6.32
2022-08-28T01:03:48.477Z,5.70
2022-08-28T01:04:22.427Z,5.70
2022-08-28T01:04:55.306Z,5.37
2022-08-28T01:05:28.858Z,5.47
2022-08-28T01:06:01.537Z,5.30
2022-08-28T01:06:35.699Z,6.05
2022-08-28T01:07:10.505Z,5.87
2022-08-28T01:07:43.418Z,5.80
2022-08-28T01:08:16.326Z,5.75
2022-08-28T01:08:54.465Z,5.90
2022-08-28T01:09:30.644Z,5.37
2022-08-28T01:10:05.354Z,5.87
2022-08-28T01:10:37.478Z,6.00
2022-08-28T01:11:10.879Z,5.57
2022-08-28T01:11:44.587Z,6.07
2022-08-28T01:12:29.680Z,5.53
2022-08-28T01:13:02.179Z,5.90
2022-08-28T01:13:36.564Z,5.75
2022-08-28T01:14:09.202Z,5.50
2022-08-28T01:14:42.617Z,5.93
2022-08-28T01:15:18.828Z,5.95
2022-08-28T01:15:51.488Z,6.40
2022-08-28T01:16:31.601Z,5.72
2022-08-28T01:17:08.547Z,5.95
2022-08-28T01:17:48.451Z,5.87
2022-08-28T01:18:21.337Z,6.03
2022-08-28T01:18:54.712Z,5.62
2022-08-28T01:19:33.187Z,6.47
2022-08-28T01:20:09.591Z,5.25
2022-08-28T01:21:20.359Z,5.82
2022-08-28T01:22:09.916Z,5.20
2022-08-28T01:22:59.080Z,5.90
2022-08-28T01:24:02.226Z,5.75
2022-08-28T01:24:38.293Z,5.35
2022-08-28T01:25:16.784Z,5.18
2022-08-28T01:25:48.706Z,5.62
2022-08-28T01:26:21.645Z,6.07
2022-08-28T01:26:53.540Z,5.65
2022-08-28T01:27:25.456Z,5.87
2022-08-28T01:27:59.015Z,6.30
2022-08-28T01:28:31.361Z,5.50
2022-08-28T01:29:03.521Z,5.37
2022-08-28T01:29:36.446Z,5.50
2022-08-28T01:30:15.008Z,5.93
2022-08-28T01:30:49.476Z,5.82
2022-08-28T01:31:21.805Z,5.72
2022-08-28T01:31:53.754Z,5.00
2022-08-28T01:32:39.496Z,5.95
2022-08-28T01:33:12.307Z,5.18
2022-08-28T01:33:46.129Z,5.25
2022-08-28T01:34:18.084Z,5.53
2022-08-28T01:34:50.284Z,5.37
2022-08-28T01:35:26.279Z,4.82
2022-08-28T01:35:59.347Z,4.65
2022-08-28T01:36:32.285Z,4.93
2022-08-28T01:37:04.352Z,5.00
2022-08-28T01:37:37.215Z,5.12
2022-08-28T01:38:09.262Z,5.50
2022-08-28T01:38:43.753Z,5.12
2022-08-28T01:39:19.870Z,5.05
2022-08-28T01:39:52.216Z,5.37
2022-08-28T01:40:29.049Z,5.32
2022-08-28T01:41:00.999Z,4.53
2022-08-28T01:41:33.465Z,4.97
2022-08-28T01:42:06.894Z,5.10
2022-08-28T01:42:40.490Z,5.12
2022-08-28T01:43:19.003Z,5.03
2022-08-28T01:43:50.909Z,5.10
2022-08-28T01:44:26.776Z,5.20
2022-08-28T01:44:59.317Z,5.35
2022-08-28T01:45:31.453Z,5.47
2022-08-28T01:46:05.926Z,4.57
2022-08-28T01:46:38.000Z,4.90
2022-08-28T01:47:11.399Z,4.90
2022-08-28T01:47:45.244Z,4.72
2022-08-28T01:48:17.191Z,5.20
2022-08-28T01:48:49.324Z,5.82
2022-08-28T01:49:21.682Z,5.10
2022-08-28T01:49:53.595Z,4.70
2022-08-28T01:50:25.931Z,5.00
2022-08-28T01:50:57.954Z,4.40
2022-08-28T01:51:29.944Z,5.03
2022-08-28T01:52:07.539Z,4.75
2022-08-28T01:52:41.740Z,4.78
2022-08-28T01:53:19.400Z,4.50
2022-08-28T01:53:56.710Z,5.15
2022-08-28T01:54:28.920Z,5.50
2022-08-28T01:55:00.868Z,5.50
2022-08-28T01:55:37.355Z,4.50
2022-08-28T01:56:13.541Z,5.05
2022-08-28T01:56:45.883Z,4.30
2022-08-28T01:57:17.879Z,4.68
2022-08-28T01:57:53.899Z,4.60
2022-08-28T01:58:28.023Z,4.97
2022-08-28T01:59:03.521Z,4.62
2022-08-28T01:59:35.498Z,4.60
2022-08-28T02:00:08.411Z,4.50
2022-08-28T02:00:44.437Z,4.30
2022-08-28T02:01:20.356Z,4.85
2022-08-28T02:01:52.857Z,4.45
2022-08-28T02:02:24.833Z,4.72
2022-08-28T02:03:00.902Z,4.40
2022-08-28T02:03:33.511Z,4.43
2022-08-28T02:04:06.304Z,4.12
2022-08-28T02:04:38.419Z,4.45
2022-08-28T02:05:11.136Z,3.83
2022-08-28T02:05:44.053Z,4.10
2022-08-28T02:06:17.917Z,4.18
2022-08-28T02:06:50.847Z,3.97
2022-08-28T02:07:22.794Z,3.97
2022-08-28T02:07:55.966Z,4.25
2022-08-28T02:08:27.929Z,4.28
2022-08-28T02:09:00.477Z,4.82
2022-08-28T02:09:32.398Z,4.30
2022-08-28T02:10:06.612Z,4.37
2022-08-28T02:10:39.965Z,4.07
2022-08-28T02:11:12.791Z,4.43
2022-08-28T02:11:46.608Z,3.70
2022-08-28T02:12:18.949Z,4.45
2022-08-28T02:12:55.435Z,4.00
2022-08-28T02:13:31.083Z,4.28
2022-08-28T02:14:03.069Z,4.12
2022-08-28T02:14:35.510Z,4.05
2022-08-28T02:15:08.085Z,3.97
2022-08-28T02:15:41.870Z,4.35
2022-08-28T02:16:14.047Z,3.92
2022-08-28T02:16:47.221Z,4.40
2022-08-28T02:17:19.177Z,3.80
2022-08-28T02:17:52.132Z,3.80
2022-08-28T02:18:24.673Z,4.85
2022-08-28T02:18:56.716Z,4.20
2022-08-28T02:19:29.824Z,3.92
2022-08-28T02:20:01.975Z,4.15
2022-08-28T02:20:34.003Z,4.37
2022-08-28T02:21:07.289Z,4.47
2022-08-28T02:21:39.436Z,4.18
2022-08-28T02:22:13.453Z,4.12
2022-08-28T02:22:45.819Z,4.25
2022-08-28T02:23:17.999Z,3.95
2022-08-28T02:23:50.216Z,3.70
2022-08-28T02:24:22.289Z,4.30
2022-08-28T02:24:54.229Z,4.32
2022-08-28T02:25:27.199Z,4.62
2022-08-28T02:25:59.277Z,4.90
2022-08-28T02:26:31.928Z,4.53
2022-08-28T02:27:04.111Z,4.65
2022-08-28T02:27:36.666Z,4.65
2022-08-28T02:28:09.254Z,4.10
2022-08-28T02:28:42.364Z,3.83
2022-08-28T02:29:14.407Z,4.62
2022-08-28T02:29:46.971Z,4.15
2022-08-28T02:30:18.937Z,4.95
2022-08-28T02:30:51.094Z,4.87
2022-08-28T02:31:23.096Z,4.40
2022-08-28T02:31:55.786Z,5.55
2022-08-28T02:32:28.067Z,4.28
2022-08-28T02:33:00.359Z,4.03
2022-08-28T02:33:32.239Z,4.60
2022-08-28T02:34:04.546Z,4.50
2022-08-28T02:34:37.389Z,4.93
2022-08-28T02:35:12.209Z,4.80
2022-08-28T02:35:44.209Z,4.22
2022-08-28T02:36:16.446Z,4.00
2022-08-28T02:36:49.167Z,4.45
2022-08-28T02:37:22.450Z,4.45
2022-08-28T02:37:55.410Z,4.40
2022-08-28T02:38:27.736Z,4.78
2022-08-28T02:39:03.280Z,4.40
2022-08-28T02:39:35.649Z,4.05
2022-08-28T02:40:08.612Z,4.30
2022-08-28T02:40:41.360Z,4.20
2022-08-28T02:41:13.620Z,4.40
2022-08-28T02:41:45.516Z,4.43
2022-08-28T02:42:17.443Z,4.35
2022-08-28T02:42:52.132Z,4.00
2022-08-28T02:43:24.024Z,4.12
2022-08-28T02:43:56.331Z,4.05
2022-08-28T02:44:28.275Z,4.35
2022-08-28T02:45:00.982Z,4.47
2022-08-28T02:45:33.658Z,4.10
2022-08-28T02:46:06.615Z,4.43
2022-08-28T02:46:38.610Z,4.03
2022-08-28T02:47:10.582Z,4.53
2022-08-28T02:47:44.771Z,4.18
2022-08-28T02:48:17.102Z,4.30
2022-08-28T02:48:50.383Z,3.92
2022-08-28T02:49:25.540Z,3.85
2022-08-28T02:50:04.262Z,3.83
2022-08-28T02:50:36.235Z,4.35
2022-08-28T02:51:13.426Z,4.57
2022-08-28T02:51:45.352Z,4.43
2022-08-28T02:52:19.096Z,4.03
2022-08-28T02:52:52.083Z,4.28
2022-08-28T02:53:23.973Z,4.00
2022-08-28T02:53:56.461Z,4.40
2022-08-28T02:54:28.640Z,4.28
2022-08-28T02:55:00.612Z,3.80
2022-08-28T02:55:34.225Z,4.37
2022-08-28T02:56:06.556Z,3.97
2022-08-28T02:56:38.476Z,4.22
2022-08-28T02:57:10.441Z,4.07
2022-08-28T02:57:42.800Z,4.40
2022-08-28T02:58:14.772Z,4.30
2022-08-28T02:58:47.888Z,3.90
2022-08-28T02:59:19.917Z,4.43
2022-08-28T02:59:52.223Z,4.07
2022-08-28T03:00:25.951Z,4.15
2022-08-28T03:01:01.871Z,4.87
2022-08-28T03:01:34.347Z,4.18
2022-08-28T03:02:07.308Z,4.18
2022-08-28T03:02:40.650Z,4.43
2022-08-28T03:03:12.619Z,3.90
2022-08-28T03:03:44.738Z,4.25
2022-08-28T03:04:17.592Z,3.90
2022-08-28T03:04:49.584Z,4.45
2022-08-28T03:05:25.442Z,3.97
2022-08-28T03:05:59.605Z,4.00
2022-08-28T03:06:32.630Z,3.87
2022-08-28T03:07:07.478Z,4.15
2022-08-28T03:07:39.868Z,4.10
2022-08-28T03:08:12.436Z,4.43
2022-08-28T03:08:44.822Z,4.03
2022-08-28T03:09:16.782Z,3.80
2022-08-28T03:09:49.960Z,4.40
2022-08-28T03:10:22.700Z,4.28
2022-08-28T03:10:54.994Z,4.15
2022-08-28T03:11:27.729Z,4.22
2022-08-28T03:11:59.696Z,3.87
2022-08-28T03:12:32.300Z,4.50
2022-08-28T03:13:06.054Z,4.10
2022-08-28T03:13:38.461Z,4.10
2022-08-28T03:14:10.427Z,4.50
2022-08-28T03:14:42.551Z,4.32
2022-08-28T03:15:14.519Z,4.30
2022-08-28T03:15:46.800Z,4.20
2022-08-28T03:16:25.430Z,4.40
2022-08-28T03:16:57.447Z,3.85
2022-08-28T03:17:29.497Z,4.28
2022-08-28T03:18:01.409Z,4.12
2022-08-28T03:18:40.231Z,4.12
2022-08-28T03:19:12.312Z,4.60
2022-08-28T03:19:45.094Z,4.25
2022-08-28T03:20:17.069Z,4.53
2022-08-28T03:20:48.990Z,4.00
2022-08-28T03:21:20.958Z,4.18
2022-08-28T03:21:53.476Z,4.30
2022-08-28T03:22:44.166Z,3.90
2022-08-28T03:23:28.851Z,4.12
2022-08-28T03:24:00.830Z,4.40
2022-08-28T03:24:33.415Z,3.97
2022-08-28T03:25:06.269Z,3.97
2022-08-28T03:25:38.302Z,4.68
2022-08-28T03:26:14.195Z,4.03
2022-08-28T03:26:46.933Z,4.37
2022-08-28T03:27:19.532Z,4.65
2022-08-28T03:27:52.191Z,4.28
2022-08-28T03:28:28.747Z,3.95
2022-08-28T03:29:00.822Z,4.22
2022-08-28T03:29:32.726Z,4.12
2022-08-28T03:30:07.920Z,4.15
2022-08-28T03:30:40.090Z,4.43
2022-08-28T03:31:15.150Z,4.15
2022-08-28T03:31:47.574Z,4.75
2022-08-28T03:32:19.802Z,4.30
2022-08-28T03:32:52.100Z,4.30
2022-08-28T03:33:25.339Z,4.03
2022-08-28T03:33:57.978Z,4.30
2022-08-28T03:34:29.969Z,4.35
2022-08-28T03:35:03.382Z,4.50
2022-08-28T03:35:35.393Z,4.15
2022-08-28T03:36:08.426Z,4.40
2022-08-28T03:36:40.399Z,4.47
2022-08-28T03:37:12.758Z,4.50
2022-08-28T03:37:45.117Z,4.50
2022-08-28T03:38:18.331Z,3.95
2022-08-28T03:38:51.941Z,4.00
2022-08-28T03:39:23.835Z,4.45
2022-08-28T03:39:56.001Z,4.53
2022-08-28T03:40:28.016Z,4.50
2022-08-28T03:40:59.987Z,3.75
2022-08-28T03:41:34.171Z,4.43
2022-08-28T03:42:06.220Z,4.22
2022-08-28T03:42:39.084Z,4.70
2022-08-28T03:43:14.394Z,4.68
2022-08-28T03:43:46.610Z,4.20
2022-08-28T03:44:18.567Z,4.28
2022-08-28T03:44:50.485Z,4.37
2022-08-28T03:45:22.631Z,4.40
2022-08-28T03:46:00.157Z,4.22
2022-08-28T03:46:34.203Z,3.92
2022-08-28T03:47:06.227Z,4.18
2022-08-28T03:47:39.888Z,4.10
2022-08-28T03:48:12.249Z,4.18
2022-08-28T03:48:45.906Z,4.22
2022-08-28T03:49:17.845Z,4.55
2022-08-28T03:49:56.473Z,4.75
2022-08-28T03:50:28.959Z,4.20
2022-08-28T03:51:01.801Z,4.07
2022-08-28T03:51:34.873Z,4.57
2022-08-28T03:52:07.129Z,3.80
2022-08-28T03:52:42.566Z,4.57
2022-08-28T03:53:14.998Z,4.10
2022-08-28T03:53:47.456Z,4.35
2022-08-28T03:54:19.351Z,4.20
2022-08-28T03:54:52.017Z,4.32
2022-08-28T03:55:24.287Z,3.80
2022-08-28T03:55:56.975Z,4.80
2022-08-28T03:56:30.483Z,3.83
2022-08-28T03:57:02.432Z,4.40
2022-08-28T03:57:35.347Z,4.57
2022-08-28T03:58:08.198Z,4.35
2022-08-28T03:58:42.306Z,4.78
2022-08-28T03:59:14.398Z,4.20
2022-08-28T03:59:51.836Z,4.60
2022-08-28T04:00:24.215Z,4.12
2022-08-28T04:00:56.714Z,4.12
2022-08-28T04:01:29.305Z,4.45
2022-08-28T04:02:01.259Z,4.53
2022-08-28T04:02:33.262Z,4.20
2022-08-28T04:03:05.446Z,4.25
2022-08-28T04:03:37.505Z,4.18
2022-08-28T04:04:09.777Z,4.37
2022-08-28T04:04:41.679Z,3.92
2022-08-28T04:05:14.099Z,4.55
2022-08-28T04:05:47.250Z,4.78
2022-08-28T04:06:20.164Z,4.43
2022-08-28T04:06:52.055Z,4.30
2022-08-28T04:07:23.952Z,4.37
2022-08-28T04:07:55.952Z,4.50
2022-08-28T04:08:29.394Z,4.60
2022-08-28T04:09:02.268Z,4.60
2022-08-28T04:09:34.610Z,5.05
2022-08-28T04:10:07.471Z,4.00
2022-08-28T04:10:39.474Z,4.05
2022-08-28T04:11:11.401Z,4.68
2022-08-28T04:11:43.958Z,4.65
2022-08-28T04:12:16.071Z,4.28
2022-08-28T04:12:48.064Z,3.87
2022-08-28T04:13:21.339Z,4.43
2022-08-28T04:13:53.208Z,4.72
2022-08-28T04:14:25.114Z,4.80
2022-08-28T04:14:57.542Z,3.83
2022-08-28T04:15:29.701Z,4.53
2022-08-28T04:16:11.359Z,4.60
2022-08-28T04:16:43.783Z,4.25
2022-08-28T04:17:16.659Z,3.95
2022-08-28T04:17:48.608Z,4.70
2022-08-28T04:18:20.949Z,4.50
2022-08-28T04:18:52.841Z,4.28
2022-08-28T04:19:24.736Z,4.47
2022-08-28T04:19:56.714Z,4.30
2022-08-28T04:20:29.176Z,4.40
2022-08-28T04:21:11.674Z,4.10
2022-08-28T04:21:44.221Z,4.62
2022-08-28T04:22:16.113Z,4.70
2022-08-28T04:22:55.133Z,4.32
2022-08-28T04:23:27.339Z,4.55
2022-08-28T04:23:59.243Z,4.43
2022-08-28T04:24:31.231Z,4.40
2022-08-28T04:25:04.290Z,4.20
2022-08-28T04:25:36.270Z,4.95
2022-08-28T04:26:09.170Z,4.20
2022-08-28T04:26:41.074Z,4.87
2022-08-28T04:27:15.031Z,4.57
2022-08-28T04:27:46.937Z,4.78
2022-08-28T04:28:18.857Z,4.35
2022-08-28T04:28:50.991Z,4.82
2022-08-28T04:29:25.612Z,4.57
2022-08-28T04:29:57.743Z,4.50
2022-08-28T04:30:29.630Z,4.10
2022-08-28T04:31:02.237Z,4.55
2022-08-28T04:31:35.516Z,4.35
2022-08-28T04:32:07.579Z,4.60
2022-08-28T04:32:40.718Z,4.62
2022-08-28T04:33:14.200Z,4.30
2022-08-28T04:33:46.392Z,3.95
2022-08-28T04:34:18.321Z,4.12
2022-08-28T04:34:50.637Z,4.70
2022-08-28T04:35:22.638Z,4.10
2022-08-28T04:35:54.882Z,4.18
2022-08-28T04:36:26.752Z,3.97
2022-08-28T04:36:58.873Z,3.78
2022-08-28T04:37:31.080Z,3.83
2022-08-28T04:38:05.564Z,4.07
2022-08-28T04:38:43.493Z,4.28
2022-08-28T04:39:15.925Z,4.10
2022-08-28T04:39:47.820Z,3.90
2022-08-28T04:40:19.821Z,4.20
2022-08-28T04:40:51.827Z,3.95
2022-08-28T04:41:24.016Z,4.37
2022-08-28T04:41:56.091Z,4.22
2022-08-28T04:42:28.080Z,4.03
2022-08-28T04:43:00.003Z,3.85
2022-08-28T04:43:32.349Z,4.20
2022-08-28T04:44:05.326Z,6.15
2022-08-28T04:44:37.448Z,4.28
2022-08-28T04:45:09.746Z,4.30
2022-08-28T04:45:43.421Z,4.70
2022-08-28T04:46:15.616Z,4.12
2022-08-28T04:46:48.400Z,4.18
2022-08-28T04:47:23.004Z,4.32
2022-08-28T04:47:54.939Z,4.22
2022-08-28T04:48:27.497Z,4.40
2022-08-28T04:49:00.157Z,4.35
2022-08-28T04:49:32.221Z,3.97
2022-08-28T04:50:05.303Z,4.05
2022-08-28T04:50:44.107Z,3.80
2022-08-28T04:51:16.519Z,3.80
2022-08-28T04:51:48.525Z,4.18
2022-08-28T04:52:20.470Z,4.65
2022-08-28T04:52:52.589Z,4.32
2022-08-28T04:53:24.821Z,3.97
2022-08-28T04:53:57.921Z,4.78
2022-08-28T04:54:32.139Z,3.85
2022-08-28T04:55:04.931Z,4.28
2022-08-28T04:55:53.671Z,3.67
2022-08-28T04:56:27.387Z,3.72
2022-08-28T04:56:59.324Z,4.10
2022-08-28T04:57:36.121Z,3.55
2022-08-28T04:58:08.945Z,3.80
2022-08-28T04:58:43.024Z,4.20
2022-08-28T04:59:15.018Z,3.75
2022-08-28T04:59:47.799Z,4.22
2022-08-28T05:00:19.921Z,4.18
2022-08-28T05:00:53.986Z,3.62
2022-08-28T05:01:26.178Z,3.83
2022-08-28T05:01:58.219Z,4.18
2022-08-28T05:02:30.279Z,4.28
2022-08-28T05:03:02.247Z,4.20
2022-08-28T05:03:34.489Z,4.28
2022-08-28T05:04:06.577Z,3.50
2022-08-28T05:04:38.510Z,3.90
2022-08-28T05:05:11.825Z,4.03
2022-08-28T05:05:49.616Z,3.90
2022-08-28T05:06:23.035Z,3.70
2022-08-28T05:06:55.022Z,4.18
2022-08-28T05:07:27.110Z,3.70
2022-08-28T05:07:59.055Z,3.90
2022-08-28T05:08:31.903Z,3.60
2022-08-28T05:09:04.445Z,3.72
2022-08-28T05:09:36.474Z,4.00
2022-08-28T05:10:08.733Z,3.40
2022-08-28T05:10:41.663Z,4.82
2022-08-28T05:11:22.116Z,3.22
2022-08-28T05:12:06.606Z,4.00
2022-08-28T05:12:38.533Z,3.50
2022-08-28T05:13:12.299Z,4.22
2022-08-28T05:13:45.166Z,3.65
2022-08-28T05:14:17.264Z,3.85
2022-08-28T05:14:49.709Z,3.95
2022-08-28T05:15:21.599Z,4.03
2022-08-28T05:15:55.351Z,4.05
2022-08-28T05:16:27.446Z,4.07
2022-08-28T05:16:59.913Z,3.78
2022-08-28T05:17:32.123Z,4.22
2022-08-28T05:18:04.235Z,3.90
2022-08-28T05:18:36.380Z,4.35
2022-08-28T05:19:08.391Z,3.90
2022-08-28T05:19:40.771Z,3.90
2022-08-28T05:20:12.723Z,3.50
2022-08-28T05:20:46.829Z,3.70
2022-08-28T05:21:22.279Z,4.35
2022-08-28T05:21:54.497Z,4.05
2022-08-28T05:22:28.898Z,3.72
2022-08-28T05:23:00.778Z,3.87
2022-08-28T05:23:32.803Z,4.00
2022-08-28T05:24:05.706Z,4.20
2022-08-28T05:24:38.178Z,3.80
2022-08-28T05:25:10.519Z,4.00
2022-08-28T05:25:45.324Z,4.55
2022-08-28T05:26:19.878Z,3.50
2022-08-28T05:26:52.252Z,4.10
2022-08-28T05:27:24.559Z,4.20
2022-08-28T05:27:56.473Z,4.35
2022-08-28T05:28:28.411Z,4.20
2022-08-28T05:29:00.717Z,3.85
2022-08-28T05:29:32.947Z,3.90
2022-08-28T05:30:05.887Z,3.90
2022-08-28T05:30:39.432Z,3.83
2022-08-28T05:31:16.378Z,3.67
2022-08-28T05:31:48.681Z,3.53
2022-08-28T05:32:21.568Z,3.70
2022-08-28T05:32:54.002Z,3.80
2022-08-28T05:33:25.909Z,3.37
2022-08-28T05:33:59.460Z,3.87
2022-08-28T05:34:31.784Z,3.72
2022-08-28T05:35:04.030Z,3.67
2022-08-28T05:35:38.682Z,3.70
2022-08-28T05:36:11.450Z,4.15
2022-08-28T05:36:43.339Z,4.22
2022-08-28T05:37:19.448Z,3.80
2022-08-28T05:37:55.118Z,3.90
2022-08-28T05:38:27.055Z,4.22
2022-08-28T05:38:59.020Z,3.85
2022-08-28T05:39:30.922Z,4.37
2022-08-28T05:40:03.324Z,3.70
2022-08-28T05:40:44.638Z,3.87
2022-08-28T05:41:21.141Z,4.15
2022-08-28T05:41:53.098Z,4.12
2022-08-28T05:42:28.865Z,4.00
2022-08-28T05:43:03.291Z,3.60
2022-08-28T05:43:36.126Z,4.47
2022-08-28T05:44:10.435Z,4.25
2022-08-28T05:44:42.315Z,4.05
2022-08-28T05:45:14.211Z,3.47
2022-08-28T05:45:46.309Z,4.15
2022-08-28T05:46:18.403Z,4.07
2022-08-28T05:46:51.376Z,3.85
2022-08-28T05:47:23.403Z,3.62
2022-08-28T05:47:55.323Z,3.62
2022-08-28T05:48:34.859Z,3.75
2022-08-28T05:49:10.653Z,3.72
2022-08-28T05:49:42.592Z,3.50
2022-08-28T05:50:15.001Z,3.67
2022-08-28T05:50:48.135Z,3.60
2022-08-28T05:51:22.746Z,3.70
2022-08-28T05:51:54.745Z,3.67
2022-08-28T05:52:28.799Z,3.90
2022-08-28T05:53:01.453Z,3.95
2022-08-28T05:53:35.632Z,3.97
2022-08-28T05:54:08.745Z,3.72
2022-08-28T05:54:40.648Z,3.72
2022-08-28T05:55:13.248Z,3.70
2022-08-28T05:55:45.597Z,3.80
2022-08-28T05:56:30.928Z,3.67
2022-08-28T05:57:03.802Z,4.00
2022-08-28T05:57:36.236Z,4.05
2022-08-28T05:58:26.977Z,3.53
2022-08-28T05:59:34.995Z,3.80
2022-08-28T06:00:07.790Z,3.60
2022-08-28T06:00:40.418Z,3.30
2022-08-28T06:01:21.588Z,4.20
2022-08-28T06:01:53.559Z,3.45
2022-08-28T06:02:26.758Z,3.70
2022-08-28T06:02:59.162Z,3.58
2022-08-28T06:03:31.254Z,3.72
2022-08-28T06:04:08.473Z,3.55
2022-08-28T06:04:40.649Z,3.70
2022-08-28T06:05:13.048Z,3.10
2022-08-28T06:05:45.488Z,3.97
2022-08-28T06:06:17.535Z,3.65
2022-08-28T06:06:49.984Z,4.00
2022-08-28T06:07:21.902Z,3.10
2022-08-28T06:07:53.876Z,3.90
2022-08-28T06:08:26.636Z,3.45
2022-08-28T06:09:04.612Z,3.80
2022-08-28T06:09:38.346Z,3.37
2022-08-28T06:10:10.624Z,3.50
2022-08-28T06:10:44.809Z,3.30
2022-08-28T06:11:21.124Z,3.60
2022-08-28T06:11:59.046Z,3.55
2022-08-28T06:12:31.262Z,3.10
2022-08-28T06:13:04.288Z,3.35
2022-08-28T06:13:37.590Z,3.40
2022-08-28T06:14:12.043Z,3.70
2022-08-28T06:14:47.238Z,3.15
2022-08-28T06:15:19.219Z,3.28
2022-08-28T06:15:51.297Z,3.30
2022-08-28T06:16:23.567Z,3.58
2022-08-28T06:16:56.789Z,3.30
2022-08-28T06:17:28.805Z,3.37
2022-08-28T06:18:00.733Z,3.92
2022-08-28T06:18:32.669Z,3.42
2022-08-28T06:19:06.855Z,3.97
2022-08-28T06:19:41.495Z,3.85
2022-08-28T06:20:13.680Z,3.28
2022-08-28T06:20:47.713Z,3.65
2022-08-28T06:21:20.759Z,3.50
2022-08-28T06:21:58.902Z,3.47
2022-08-28T06:22:31.879Z,3.00
2022-08-28T06:23:03.854Z,3.47
2022-08-28T06:23:35.954Z,3.17
2022-08-28T06:24:12.225Z,3.17
2022-08-28T06:24:44.159Z,3.20
2022-08-28T06:25:16.112Z,3.50
2022-08-28T06:25:50.046Z,4.53
2022-08-28T06:26:23.086Z,3.30
2022-08-28T06:26:58.485Z,3.50
2022-08-28T06:27:33.085Z,3.35
2022-08-28T06:28:07.005Z,3.40
2022-08-28T06:28:39.390Z,3.10
2022-08-28T06:29:13.978Z,3.33
2022-08-28T06:29:45.888Z,3.15
2022-08-28T06:30:17.904Z,3.33
2022-08-28T06:31:17.974Z,3.37
2022-08-28T06:31:44.424Z,3.28
2022-08-28T06:32:16.775Z,3.33
2022-08-28T06:32:48.751Z,3.60
2022-08-28T06:33:22.194Z,3.80
2022-08-28T06:33:56.073Z,3.65
2022-08-28T06:34:28.724Z,3.47
2022-08-28T06:35:00.623Z,3.00
2022-08-28T06:35:34.394Z,3.37
2022-08-28T06:36:07.742Z,3.37
2022-08-28T06:36:42.334Z,3.30
2022-08-28T06:37:14.222Z,3.35
2022-08-28T06:37:46.441Z,3.40
2022-08-28T06:38:21.085Z,3.17
2022-08-28T06:38:55.404Z,3.80
2022-08-28T06:39:27.326Z,3.72
2022-08-28T06:39:59.310Z,3.37
2022-08-28T06:40:31.364Z,3.33
2022-08-28T06:41:09.331Z,3.40
2022-08-28T06:41:43.395Z,3.35
2022-08-28T06:42:15.599Z,3.47
2022-08-28T06:42:47.802Z,3.53
2022-08-28T06:43:22.085Z,3.12
2022-08-28T06:43:54.899Z,3.67
2022-08-28T06:44:26.845Z,3.45
2022-08-28T06:44:58.782Z,3.85
2022-08-28T06:45:31.867Z,3.30
2022-08-28T06:46:04.384Z,3.78
2022-08-28T06:46:36.825Z,3.90
2022-08-28T06:47:11.566Z,3.85
2022-08-28T06:47:43.526Z,3.53
2022-08-28T06:48:19.703Z,3.55
2022-08-28T06:48:52.068Z,3.25
2022-08-28T06:49:23.993Z,3.42
2022-08-28T06:49:55.991Z,3.55
2022-08-28T06:50:27.901Z,3.45
2022-08-28T06:51:00.089Z,3.30
2022-08-28T06:51:32.024Z,3.25
2022-08-28T06:52:03.991Z,3.70
2022-08-28T06:52:36.222Z,3.45
2022-08-28T06:53:12.990Z,3.53
2022-08-28T06:53:46.372Z,3.50
2022-08-28T06:54:22.957Z,3.28
2022-08-28T06:54:56.051Z,3.85
2022-08-28T06:55:28.049Z,3.10
2022-08-28T06:56:26.102Z,3.47
2022-08-28T06:56:58.887Z,3.60
2022-08-28T06:57:32.257Z,3.30
2022-08-28T06:58:06.134Z,3.37
2022-08-28T06:58:41.053Z,3.83
2022-08-28T06:59:13.467Z,3.17
2022-08-28T06:59:45.469Z,3.50
2022-08-28T07:00:17.789Z,3.22
2022-08-28T07:00:58.178Z,3.55
2022-08-28T07:01:35.852Z,3.28
2022-08-28T07:02:09.358Z,3.53
2022-08-28T07:02:41.419Z,3.45
2022-08-28T07:03:14.392Z,3.42
2022-08-28T07:03:52.118Z,3.30
2022-08-28T07:04:24.388Z,3.67
2022-08-28T07:04:56.352Z,3.25
2022-08-28T07:05:28.772Z,3.75
2022-08-28T07:06:03.313Z,3.20
2022-08-28T07:06:38.436Z,3.65
2022-08-28T07:07:11.292Z,3.10
2022-08-28T07:08:03.457Z,3.50
2022-08-28T07:08:37.140Z,3.20
2022-08-28T07:09:13.542Z,3.72
2022-08-28T07:09:46.426Z,3.50
2022-08-28T07:10:18.637Z,3.75
2022-08-28T07:10:50.578Z,2.90
2022-08-28T07:11:26.441Z,3.65
2022-08-28T07:11:58.917Z,3.22
2022-08-28T07:12:30.838Z,3.35
2022-08-28T07:13:04.290Z,3.50
2022-08-28T07:13:36.633Z,3.28
2022-08-28T07:14:08.630Z,3.20
2022-08-28T07:14:42.032Z,3.37
2022-08-28T07:15:14.253Z,3.25
2022-08-28T07:15:46.497Z,3.00
2022-08-28T07:16:20.254Z,4.05
2022-08-28T07:16:52.291Z,3.15
2022-08-28T07:17:24.193Z,3.30
2022-08-28T07:17:56.938Z,3.58
2022-08-28T07:18:29.235Z,3.20
2022-08-28T07:19:04.734Z,3.40
2022-08-28T07:19:37.379Z,3.60
2022-08-28T07:20:11.355Z,3.62
2022-08-28T07:20:44.798Z,3.53
2022-08-28T07:21:16.852Z,3.47
2022-08-28T07:21:49.187Z,3.35
2022-08-28T07:22:21.845Z,3.75
2022-08-28T07:22:57.355Z,3.42
2022-08-28T07:23:33.664Z,3.30
2022-08-28T07:24:06.670Z,3.90
2022-08-28T07:24:39.367Z,3.60
2022-08-28T07:25:14.017Z,3.55
2022-08-28T07:25:46.690Z,3.62
2022-08-28T07:26:24.163Z,3.35
2022-08-28T07:27:18.750Z,3.50
2022-08-28T07:27:53.287Z,3.25
2022-08-28T07:28:30.584Z,3.42
2022-08-28T07:29:10.519Z,3.62
2022-08-28T07:29:43.359Z,2.97